Time;durP1;ratioP1;P1;durP2;ratioP2;P2;SDS_P1;SDS_P2;PMS_P1;PMS_P2;Temp;Humidity;BMP_temperature;BMP_pressure;BME280_temperature;BME280_humidity;BME280_pressure;Samples;Min_cycle;Max_cycle;Signal;HPM_P1;HPM_P2
2021/12/19 00:01:28;;;;;;;7.13;0.93;;;;;;;;;;5006515;28;20054;-64
2021/12/19 00:09:28;;;;;;;12.77;2.53;;;;;;;;;;5007499;28;20500;-64
2021/12/19 00:11:56;;;;;;;11.43;2.70;;;;;;;;;;5008088;28;20068;-64
2021/12/19 00:14:23;;;;;;;12.18;3.97;;;;;;;;;;5009039;28;20038;-63
2021/12/19 00:16:53;;;;;;;11.88;3.97;;;;;;;;;;5006562;28;20057;-63
2021/12/19 00:19:20;;;;;;;11.77;5.00;;;;;;;;;;5006419;28;20110;-63
2021/12/19 00:21:46;;;;;;;15.63;6.78;;;;;;;;;;5006533;28;20052;-63
2021/12/19 00:24:12;;;;;;;15.35;7.63;;;;;;;;;;5006393;28;20040;-62
2021/12/19 00:26:39;;;;;;;18.70;8.02;;;;;;;;;;5006185;28;20057;-62
2021/12/19 00:29:05;;;;;;;17.15;7.82;;;;;;;;;;5007586;28;20045;-63
2021/12/19 00:31:32;;;;;;;17.75;9.20;;;;;;;;;;5006522;28;20487;-62
2021/12/19 00:33:58;;;;;;;19.80;9.10;;;;;;;;;;5006176;28;20289;-62
2021/12/19 00:36:25;;;;;;;27.85;12.60;;;;;;;;;;5007710;28;20085;-62
2021/12/19 00:38:51;;;;;;;22.00;11.82;;;;;;;;;;5005762;28;20038;-62
2021/12/19 00:41:18;;;;;;;22.13;11.93;;;;;;;;;;5005592;28;20041;-62
2021/12/19 00:43:54;;;;;;;20.20;12.65;;;;;;;;;;5006158;28;20064;-61
2021/12/19 00:46:22;;;;;;;20.15;10.65;;;;;;;;;;5007311;28;20504;-61
2021/12/19 00:48:50;;;;;;;21.52;10.85;;;;;;;;;;5006471;28;20058;-61
2021/12/19 00:51:18;;;;;;;18.92;8.77;;;;;;;;;;5007806;28;20125;-61
2021/12/19 00:53:45;;;;;;;20.65;7.65;;;;;;;;;;5006086;28;20407;-62
2021/12/19 00:56:11;;;;;;;18.45;7.53;;;;;;;;;;5008654;28;20504;-61
2021/12/19 00:58:38;;;;;;;16.13;8.43;;;;;;;;;;5007664;28;20034;-62
2021/12/19 01:01:05;;;;;;;16.20;8.15;;;;;;;;;;5006209;28;20455;-62
2021/12/19 01:03:31;;;;;;;15.70;6.75;;;;;;;;;;5007246;28;20388;-62
2021/12/19 01:05:57;;;;;;;19.95;7.05;;;;;;;;;;5007062;28;20038;-61
2021/12/19 01:08:23;;;;;;;21.23;6.28;;;;;;;;;;5007376;28;20045;-62
2021/12/19 01:10:49;;;;;;;14.88;5.68;;;;;;;;;;5007267;28;20052;-61
2021/12/19 01:13:16;;;;;;;19.23;6.07;;;;;;;;;;5007075;28;20056;-63
2021/12/19 01:15:42;;;;;;;11.77;4.38;;;;;;;;;;5006731;28;20042;-62
2021/12/19 01:18:09;;;;;;;10.65;4.55;;;;;;;;;;5006394;28;20042;-61
2021/12/19 01:20:37;;;;;;;10.38;3.35;;;;;;;;;;5006532;28;20038;-61
2021/12/19 01:23:03;;;;;;;9.43;2.22;;;;;;;;;;5022850;28;20057;-62
2021/12/19 01:25:30;;;;;;;11.70;3.10;;;;;;;;;;5007797;28;20042;-61
2021/12/19 01:27:56;;;;;;;10.85;3.25;;;;;;;;;;5007718;28;20049;-61
2021/12/19 01:30:24;;;;;;;8.65;2.35;;;;;;;;;;5007576;28;20046;-63
2021/12/19 01:32:50;;;;;;;11.85;3.55;;;;;;;;;;5005844;28;20058;-62
2021/12/19 01:35:17;;;;;;;11.85;3.28;;;;;;;;;;5021904;28;20052;-62
2021/12/19 01:37:43;;;;;;;16.45;3.42;;;;;;;;;;5007170;28;20045;-62
2021/12/19 01:40:11;;;;;;;11.35;2.58;;;;;;;;;;5005816;28;20037;-62
2021/12/19 01:42:39;;;;;;;14.50;3.05;;;;;;;;;;5009073;28;20034;-61
2021/12/19 01:45:07;;;;;;;11.77;2.35;;;;;;;;;;5007799;28;20042;-61
2021/12/19 01:47:34;;;;;;;15.80;2.45;;;;;;;;;;5023069;28;20045;-61
2021/12/19 01:50:00;;;;;;;10.77;2.42;;;;;;;;;;4989130;28;20053;-62
2021/12/19 01:52:29;;;;;;;7.82;2.05;;;;;;;;;;5005063;28;20510;-63
2021/12/19 01:54:56;;;;;;;9.50;2.15;;;;;;;;;;5004748;28;20100;-62
2021/12/19 01:57:25;;;;;;;10.98;2.20;;;;;;;;;;5006565;28;20073;-62
2021/12/19 01:59:55;;;;;;;12.88;2.53;;;;;;;;;;4988554;28;20058;-62
2021/12/19 02:02:21;;;;;;;7.20;2.17;;;;;;;;;;5006531;28;20138;-62
2021/12/19 02:04:48;;;;;;;10.80;2.15;;;;;;;;;;5005014;28;20072;-62
2021/12/19 02:07:15;;;;;;;14.27;2.10;;;;;;;;;;5005475;28;20045;-62
2021/12/19 02:09:44;;;;;;;13.02;2.55;;;;;;;;;;5004859;28;20081;-62
2021/12/19 02:12:10;;;;;;;13.80;2.85;;;;;;;;;;5008845;28;20121;-62
2021/12/19 02:14:36;;;;;;;9.23;2.60;;;;;;;;;;4992421;28;20050;-63
2021/12/19 02:17:03;;;;;;;11.85;2.30;;;;;;;;;;5009472;28;20042;-63
2021/12/19 02:19:30;;;;;;;7.82;1.80;;;;;;;;;;5008619;28;20411;-62
2021/12/19 02:21:56;;;;;;;16.35;1.60;;;;;;;;;;5025103;28;20040;-62
2021/12/19 02:24:22;;;;;;;8.55;1.60;;;;;;;;;;5024945;28;20396;-62
2021/12/19 02:26:48;;;;;;;8.50;1.88;;;;;;;;;;5007877;28;20064;-62
2021/12/19 02:29:14;;;;;;;11.05;2.55;;;;;;;;;;5009383;28;20108;-63
2021/12/19 02:31:40;;;;;;;9.73;2.20;;;;;;;;;;5008331;28;20048;-63
2021/12/19 02:49:50;;;;;;;19.13;3.60;;;;;;;;;;4994107;28;20076;-63
2021/12/19 02:52:19;;;;;;;14.48;3.40;;;;;;;;;;5008590;28;20411;-63
2021/12/19 02:54:46;;;;;;;14.55;3.65;;;;;;;;;;5007890;28;20187;-62
2021/12/19 02:57:12;;;;;;;24.48;4.43;;;;;;;;;;5008276;28;20044;-62
2021/12/19 02:59:40;;;;;;;19.05;5.13;;;;;;;;;;5008583;28;20049;-63
2021/12/19 03:02:06;;;;;;;16.80;4.70;;;;;;;;;;5007391;28;20060;-62
2021/12/19 03:04:32;;;;;;;18.67;5.28;;;;;;;;;;5007822;28;20038;-62
2021/12/19 03:06:59;;;;;;;12.32;4.05;;;;;;;;;;5007459;28;20053;-62
2021/12/19 03:12:26;;;;;;;16.95;3.83;;;;;;;;;;5007548;28;20057;-63
2021/12/19 03:20:17;;;;;;;29.08;4.57;;;;;;;;;;5008071;28;20444;-61
2021/12/19 03:22:43;;;;;;;24.98;4.30;;;;;;;;;;5006131;28;20154;-61
2021/12/19 03:25:10;;;;;;;19.88;3.88;;;;;;;;;;5007653;28;20212;-63
2021/12/19 03:27:36;;;;;;;24.10;4.22;;;;;;;;;;5008776;28;20504;-62
2021/12/19 03:30:03;;;;;;;21.75;3.97;;;;;;;;;;5008503;28;20252;-62
2021/12/19 03:32:29;;;;;;;24.90;3.83;;;;;;;;;;5005082;28;20045;-61
2021/12/19 03:34:55;;;;;;;21.38;3.38;;;;;;;;;;5008804;28;20073;-61
2021/12/19 03:37:21;;;;;;;22.73;3.08;;;;;;;;;;4990937;28;20129;-62
2021/12/19 03:40:07;;;;;;;18.30;2.25;;;;;;;;;;5007855;28;20749;-61
2021/12/19 03:42:33;;;;;;;17.45;2.78;;;;;;;;;;5006956;28;20046;-61
2021/12/19 03:44:59;;;;;;;20.13;3.10;;;;;;;;;;5021837;28;20441;-62
2021/12/19 03:47:25;;;;;;;20.55;2.83;;;;;;;;;;5007673;28;20099;-62
2021/12/19 03:49:52;;;;;;;20.67;3.53;;;;;;;;;;5007251;28;20492;-62
2021/12/19 03:52:18;;;;;;;18.73;3.30;;;;;;;;;;5008195;28;20054;-62
2021/12/19 03:54:44;;;;;;;20.33;3.35;;;;;;;;;;4990501;28;20054;-62
2021/12/19 03:57:10;;;;;;;23.60;4.10;;;;;;;;;;5008403;28;20540;-62
2021/12/19 03:59:36;;;;;;;22.13;4.22;;;;;;;;;;5006581;28;20088;-61
2021/12/19 04:02:03;;;;;;;23.02;5.13;;;;;;;;;;4990510;28;20125;-62
2021/12/19 04:04:35;;;;;;;23.40;4.75;;;;;;;;;;5006264;28;20778;-62
2021/12/19 04:07:01;;;;;;;24.98;5.30;;;;;;;;;;5005040;28;20054;-62
2021/12/19 04:09:27;;;;;;;28.08;4.65;;;;;;;;;;5007147;28;20069;-61
2021/12/19 04:12:00;;;;;;;20.73;4.35;;;;;;;;;;5006097;28;20476;-62
2021/12/19 04:14:26;;;;;;;22.02;4.80;;;;;;;;;;5005526;28;20623;-61
2021/12/19 04:16:52;;;;;;;23.77;4.70;;;;;;;;;;5007560;28;20502;-62
2021/12/19 04:19:20;;;;;;;23.52;4.78;;;;;;;;;;5006043;28;20129;-62
2021/12/19 04:21:47;;;;;;;27.38;5.63;;;;;;;;;;5006266;28;20038;-62
2021/12/19 04:24:13;;;;;;;24.02;5.35;;;;;;;;;;5006217;28;20041;-61
2021/12/19 04:26:39;;;;;;;24.02;4.90;;;;;;;;;;5006136;28;20042;-62
2021/12/19 04:29:06;;;;;;;26.42;5.60;;;;;;;;;;5005301;28;20049;-62
2021/12/19 04:31:32;;;;;;;23.23;5.00;;;;;;;;;;5006917;28;20128;-62
2021/12/19 04:33:58;;;;;;;26.40;5.50;;;;;;;;;;5005725;28;20069;-62
2021/12/19 04:36:31;;;;;;;28.02;5.82;;;;;;;;;;4999492;28;20057;-62
2021/12/19 05:00:08;;;;;;;20.63;5.50;;;;;;;;;;5006188;28;20136;-62
2021/12/19 05:02:57;;;;;;;16.77;5.28;;;;;;;;;;5006578;28;20077;-62
2021/12/19 05:05:55;;;;;;;24.27;7.55;;;;;;;;;;5006444;28;20095;-62
2021/12/19 05:16:24;;;;;;;31.63;8.90;;;;;;;;;;5007006;28;20420;-62
2021/12/19 05:18:53;;;;;;;29.70;9.52;;;;;;;;;;5007601;28;20081;-61
2021/12/19 05:21:24;;;;;;;29.63;9.23;;;;;;;;;;5006028;28;20420;-62
2021/12/19 05:26:22;;;;;;;32.53;8.93;;;;;;;;;;5007578;28;20073;-62
2021/12/19 05:28:48;;;;;;;41.17;10.05;;;;;;;;;;5007632;28;20407;-62
2021/12/19 05:31:16;;;;;;;34.72;9.70;;;;;;;;;;5005459;28;20042;-63
2021/12/19 05:33:42;;;;;;;28.58;8.75;;;;;;;;;;5005844;28;20100;-62
2021/12/19 05:44:10;;;;;;;29.83;8.15;;;;;;;;;;4989247;28;20037;-62
2021/12/19 05:46:41;;;;;;;29.45;9.63;;;;;;;;;;5010236;28;20057;-62
2021/12/19 05:49:10;;;;;;;32.28;9.60;;;;;;;;;;5011551;28;20096;-61
2021/12/19 05:51:36;;;;;;;20.25;6.90;;;;;;;;;;5012200;28;20152;-61
2021/12/19 05:54:03;;;;;;;28.95;7.97;;;;;;;;;;5010310;28;20297;-62
2021/12/19 05:56:29;;;;;;;21.17;4.15;;;;;;;;;;5011764;28;20050;-62
2021/12/19 05:58:55;;;;;;;21.92;4.82;;;;;;;;;;5011801;28;20038;-63
2021/12/19 06:01:21;;;;;;;22.90;4.43;;;;;;;;;;5009725;28;20064;-61
2021/12/19 06:03:47;;;;;;;19.30;2.10;;;;;;;;;;5012091;28;20038;-62
2021/12/19 06:06:13;;;;;;;10.55;1.80;;;;;;;;;;5011402;28;20038;-62
2021/12/19 06:08:39;;;;;;;11.45;1.25;;;;;;;;;;5011490;28;20038;-62
2021/12/19 06:11:06;;;;;;;12.60;1.30;;;;;;;;;;5011348;28;20053;-62
2021/12/19 06:13:32;;;;;;;11.90;1.17;;;;;;;;;;5010461;28;20149;-62
2021/12/19 06:15:58;;;;;;;9.48;0.80;;;;;;;;;;5011767;28;20042;-61
2021/12/19 06:18:24;;;;;;;14.35;0.98;;;;;;;;;;5010302;28;20045;-62
2021/12/19 06:20:51;;;;;;;9.15;0.75;;;;;;;;;;5011640;28;20030;-63
2021/12/19 06:23:17;;;;;;;14.77;1.60;;;;;;;;;;5010172;28;20065;-61
2021/12/19 06:25:46;;;;;;;12.57;0.90;;;;;;;;;;5012030;28;20046;-62
2021/12/19 06:28:16;;;;;;;10.55;1.08;;;;;;;;;;5012212;28;20128;-62
2021/12/19 06:30:42;;;;;;;14.88;0.95;;;;;;;;;;5025437;28;20042;-62
2021/12/19 06:33:08;;;;;;;16.90;1.63;;;;;;;;;;5011223;28;20045;-61
2021/12/19 06:35:35;;;;;;;13.65;1.38;;;;;;;;;;5009910;28;20392;-61
2021/12/19 06:38:01;;;;;;;18.13;1.58;;;;;;;;;;5010521;28;20052;-62
2021/12/19 06:40:27;;;;;;;12.65;1.38;;;;;;;;;;5011271;28;20076;-61
2021/12/19 06:42:53;;;;;;;15.90;1.60;;;;;;;;;;5010876;28;20045;-61
2021/12/19 06:45:20;;;;;;;17.10;2.20;;;;;;;;;;5010822;28;20041;-62
2021/12/19 06:47:46;;;;;;;17.85;2.17;;;;;;;;;;5012035;28;20038;-62
2021/12/19 06:50:12;;;;;;;14.73;1.80;;;;;;;;;;5010337;28;20137;-63
2021/12/19 06:52:39;;;;;;;19.58;2.53;;;;;;;;;;5011222;28;20048;-62
2021/12/19 06:55:06;;;;;;;20.10;2.38;;;;;;;;;;5010523;28;20052;-63
2021/12/19 06:57:32;;;;;;;27.63;3.05;;;;;;;;;;5024817;28;20046;-62
2021/12/19 06:59:58;;;;;;;23.40;3.13;;;;;;;;;;5008162;28;20459;-63
2021/12/19 07:02:24;;;;;;;23.10;3.38;;;;;;;;;;5008903;28;20046;-63
2021/12/19 07:04:51;;;;;;;29.10;4.80;;;;;;;;;;5008764;28;20034;-62
2021/12/19 07:07:19;;;;;;;27.13;3.55;;;;;;;;;;5008949;28;20068;-62
2021/12/19 07:09:45;;;;;;;27.98;3.70;;;;;;;;;;4992407;28;20046;-63
2021/12/19 07:12:11;;;;;;;30.00;4.63;;;;;;;;;;5009488;28;20056;-62
2021/12/19 07:14:37;;;;;;;29.73;4.93;;;;;;;;;;5010211;28;20483;-62
2021/12/19 07:17:03;;;;;;;29.70;4.50;;;;;;;;;;5009005;28;20034;-63
2021/12/19 07:19:29;;;;;;;34.60;4.75;;;;;;;;;;5007876;28;20698;-62
2021/12/19 07:21:55;;;;;;;36.08;5.43;;;;;;;;;;5007993;28;20041;-63
2021/12/19 07:24:21;;;;;;;29.77;5.30;;;;;;;;;;5014552;28;20033;-63
2021/12/19 07:26:47;;;;;;;32.40;5.15;;;;;;;;;;5008083;28;20403;-62
2021/12/19 07:29:14;;;;;;;26.33;4.03;;;;;;;;;;5007879;28;20448;-61
2021/12/19 07:31:40;;;;;;;27.90;4.93;;;;;;;;;;5009291;28;20454;-62
2021/12/19 07:34:06;;;;;;;31.23;4.22;;;;;;;;;;5008049;28;20142;-61
2021/12/19 07:36:40;;;;;;;28.30;3.97;;;;;;;;;;5009336;28;20046;-61
2021/12/19 07:39:11;;;;;;;;;;;;;;;;;;5009974;28;20056;-61
2021/12/19 07:41:37;;;;;;;22.33;3.97;;;;;;;;;;5008201;28;19924;-61
2021/12/19 07:44:03;;;;;;;27.40;3.97;;;;;;;;;;5007287;28;20046;-62
2021/12/19 07:46:29;;;;;;;29.23;4.43;;;;;;;;;;5008892;28;20123;-62
2021/12/19 07:48:55;;;;;;;32.53;5.00;;;;;;;;;;5007361;28;20559;-62
2021/12/19 07:51:21;;;;;;;21.45;3.42;;;;;;;;;;5007145;28;20052;-61
2021/12/19 07:53:47;;;;;;;17.50;2.92;;;;;;;;;;5009371;28;20034;-61
2021/12/19 07:56:13;;;;;;;28.00;3.95;;;;;;;;;;5008251;28;20457;-61
2021/12/19 07:58:39;;;;;;;21.20;3.42;;;;;;;;;;5007500;28;20042;-61
2021/12/19 08:01:05;;;;;;;18.67;2.67;;;;;;;;;;5008094;28;20065;-62
2021/12/19 08:03:31;;;;;;;19.30;2.47;;;;;;;;;;5023823;28;20436;-61
2021/12/19 08:05:57;;;;;;;17.15;2.50;;;;;;;;;;4974884;28;20041;-61
2021/12/19 08:08:27;;;;;;;21.92;2.88;;;;;;;;;;5007135;28;20540;-61
2021/12/19 08:13:40;;;;;;;19.25;2.95;;;;;;;;;;5008569;28;20053;-61
2021/12/19 08:16:06;;;;;;;19.23;2.40;;;;;;;;;;5007818;28;20042;-61
2021/12/19 08:18:32;;;;;;;21.80;2.90;;;;;;;;;;5008681;28;20041;-61
2021/12/19 08:20:58;;;;;;;20.58;2.28;;;;;;;;;;5008627;28;20034;-61
2021/12/19 08:23:24;;;;;;;19.95;2.80;;;;;;;;;;5008165;28;20684;-61
2021/12/19 08:25:51;;;;;;;20.65;2.58;;;;;;;;;;5008807;28;20061;-61
2021/12/19 08:28:17;;;;;;;17.65;3.30;;;;;;;;;;5007046;28;20471;-61
2021/12/19 08:30:43;;;;;;;20.13;2.53;;;;;;;;;;5007040;28;20112;-61
2021/12/19 08:33:09;;;;;;;25.20;2.63;;;;;;;;;;5007736;28;20045;-61
2021/12/19 08:35:35;;;;;;;17.42;2.65;;;;;;;;;;5008323;28;20046;-61
2021/12/19 08:38:01;;;;;;;21.08;3.40;;;;;;;;;;5008343;28;20041;-62
2021/12/19 08:40:28;;;;;;;20.17;2.78;;;;;;;;;;5008122;28;20103;-61
2021/12/19 08:42:55;;;;;;;22.25;2.88;;;;;;;;;;5008316;28;20512;-61
2021/12/19 08:45:24;;;;;;;17.48;2.65;;;;;;;;;;5005765;28;20056;-62
2021/12/19 08:47:51;;;;;;;21.85;3.03;;;;;;;;;;5006314;28;20072;-61
2021/12/19 08:50:18;;;;;;;26.42;3.13;;;;;;;;;;5008497;28;20038;-60
2021/12/19 08:52:44;;;;;;;21.58;3.42;;;;;;;;;;5008336;28;20479;-60
2021/12/19 08:55:11;;;;;;;19.83;3.20;;;;;;;;;;5022870;28;20567;-60
2021/12/19 08:57:37;;;;;;;22.35;3.20;;;;;;;;;;5006719;28;20046;-60
2021/12/19 09:00:10;;;;;;;25.45;3.75;;;;;;;;;;5006112;28;20088;-60
2021/12/19 09:02:36;;;;;;;36.92;4.45;;;;;;;;;;5005326;28;20044;-61
2021/12/19 09:05:03;;;;;;;36.85;4.38;;;;;;;;;;5008119;28;20033;-62
2021/12/19 09:07:29;;;;;;;28.60;4.63;;;;;;;;;;5008775;28;20049;-63
2021/12/19 09:09:55;;;;;;;35.03;4.32;;;;;;;;;;5008277;28;20112;-63
2021/12/19 09:12:21;;;;;;;27.08;3.67;;;;;;;;;;5007513;28;20498;-64
2021/12/19 09:14:47;;;;;;;32.70;4.13;;;;;;;;;;5013917;28;20075;-63
2021/12/19 09:17:14;;;;;;;27.27;3.60;;;;;;;;;;5006739;28;20044;-63
2021/12/19 09:19:41;;;;;;;24.10;3.45;;;;;;;;;;5006269;28;20050;-63
2021/12/19 09:22:07;;;;;;;30.25;3.78;;;;;;;;;;5007903;28;20046;-63
2021/12/19 09:24:35;;;;;;;31.77;4.15;;;;;;;;;;5007125;28;20034;-63
2021/12/19 09:27:01;;;;;;;35.58;4.38;;;;;;;;;;5006454;28;20064;-63
2021/12/19 09:29:28;;;;;;;33.70;4.53;;;;;;;;;;5007567;28;20037;-62
2021/12/19 09:31:55;;;;;;;28.65;3.90;;;;;;;;;;5006975;28;20484;-62
2021/12/19 09:34:21;;;;;;;28.73;3.65;;;;;;;;;;5006295;28;20381;-63
2021/12/19 09:36:49;;;;;;;26.95;4.00;;;;;;;;;;5001845;28;20042;-63
2021/12/19 09:39:15;;;;;;;25.88;3.47;;;;;;;;;;5005742;28;20042;-64
2021/12/19 09:41:45;;;;;;;28.17;3.17;;;;;;;;;;5005608;28;20499;-63
2021/12/19 09:44:14;;;;;;;29.25;2.97;;;;;;;;;;5006582;28;20077;-63
2021/12/19 09:46:41;;;;;;;22.55;2.95;;;;;;;;;;5005558;28;20459;-63
2021/12/19 09:49:08;;;;;;;22.92;2.50;;;;;;;;;;5005413;28;20045;-63
2021/12/19 09:51:35;;;;;;;22.40;2.55;;;;;;;;;;4988398;28;20212;-63
2021/12/19 09:54:01;;;;;;;33.65;3.40;;;;;;;;;;5005159;28;20053;-63
2021/12/19 09:56:27;;;;;;;26.92;2.95;;;;;;;;;;5006459;28;20040;-63
2021/12/19 09:58:53;;;;;;;21.30;2.78;;;;;;;;;;5007162;28;20037;-63
2021/12/19 10:01:19;;;;;;;22.83;2.55;;;;;;;;;;5006686;28;20109;-63
2021/12/19 10:03:46;;;;;;;21.38;2.50;;;;;;;;;;5005450;28;20036;-63
2021/12/19 10:06:28;;;;;;;22.17;2.42;;;;;;;;;;5006303;28;20056;-63
2021/12/19 10:09:27;;;;;;;18.23;2.03;;;;;;;;;;5006101;28;20038;-63
2021/12/19 10:14:26;;;;;;;21.92;2.33;;;;;;;;;;5006891;28;20152;-63
2021/12/19 10:16:53;;;;;;;21.00;2.40;;;;;;;;;;5006762;28;20042;-62
2021/12/19 10:19:19;;;;;;;29.88;2.85;;;;;;;;;;5007169;28;20042;-63
2021/12/19 10:21:46;;;;;;;25.70;2.45;;;;;;;;;;5006794;28;20053;-61
2021/12/19 10:24:30;;;;;;;26.02;3.00;;;;;;;;;;5007955;28;20043;-63
2021/12/19 10:26:58;;;;;;;24.88;1.95;;;;;;;;;;5007679;28;20384;-62
2021/12/19 10:29:41;;;;;;;29.42;2.78;;;;;;;;;;5006486;28;20050;-61
2021/12/19 10:32:07;;;;;;;24.55;2.75;;;;;;;;;;5011039;28;20042;-62
2021/12/19 10:34:33;;;;;;;26.50;2.63;;;;;;;;;;5011474;28;20042;-62
2021/12/19 10:36:59;;;;;;;25.75;2.90;;;;;;;;;;5010970;28;20041;-62
2021/12/19 10:39:34;;;;;;;22.95;3.08;;;;;;;;;;5019079;28;20427;-62
2021/12/19 10:42:01;;;;;;;27.35;3.03;;;;;;;;;;5008826;28;20507;-62
2021/12/19 10:47:20;;;;;;;25.25;2.55;;;;;;;;;;5009466;28;20044;-62
2021/12/19 10:49:47;;;;;;;21.27;2.60;;;;;;;;;;5010883;28;20180;-61
2021/12/19 10:52:13;;;;;;;18.45;2.47;;;;;;;;;;4992275;28;20044;-62
2021/12/19 10:54:56;;;;;;;25.08;2.65;;;;;;;;;;5025946;28;20124;-61
2021/12/19 10:57:30;;;;;;;26.90;3.50;;;;;;;;;;5009099;28;20088;-60
2021/12/19 10:59:56;;;;;;;31.13;3.30;;;;;;;;;;5011136;28;20466;-62
2021/12/19 11:02:37;;;;;;;26.48;3.63;;;;;;;;;;5009550;28;20103;-62
2021/12/19 11:05:03;;;;;;;27.20;3.13;;;;;;;;;;5009540;28;20048;-62
2021/12/19 11:07:29;;;;;;;29.60;3.05;;;;;;;;;;5007775;28;20038;-61
2021/12/19 11:09:55;;;;;;;27.80;3.20;;;;;;;;;;5026237;28;20049;-61
2021/12/19 11:12:21;;;;;;;25.73;3.00;;;;;;;;;;5009603;28;20060;-61
2021/12/19 11:14:48;;;;;;;27.15;3.38;;;;;;;;;;5008183;28;20092;-61
2021/12/19 11:17:16;;;;;;;32.03;3.60;;;;;;;;;;5011419;28;20610;-61
2021/12/19 11:19:43;;;;;;;27.98;3.05;;;;;;;;;;5011994;28;20038;-60
2021/12/19 11:22:10;;;;;;;25.55;2.90;;;;;;;;;;5025569;28;20042;-61
2021/12/19 11:24:36;;;;;;;25.95;3.08;;;;;;;;;;5010685;28;20045;-61
2021/12/19 11:27:04;;;;;;;27.33;2.72;;;;;;;;;;5009140;28;20046;-61
2021/12/19 11:29:30;;;;;;;23.17;3.20;;;;;;;;;;5008991;28;20096;-61
2021/12/19 11:31:58;;;;;;;27.77;3.00;;;;;;;;;;5008660;28;20045;-62
2021/12/19 11:35:03;;;;;;;22.58;2.60;;;;;;;;;;5007363;28;20042;-62
2021/12/19 11:37:42;;;;;;;19.17;2.97;;;;;;;;;;5005583;28;20462;-61
2021/12/19 11:40:09;;;;;;;14.70;1.83;;;;;;;;;;5007199;28;20096;-62
2021/12/19 11:42:36;;;;;;;14.82;1.63;;;;;;;;;;4997048;28;20496;-61
2021/12/19 11:45:26;;;;;;;14.75;1.42;;;;;;;;;;5009668;28;20034;-62
2021/12/19 11:47:54;;;;;;;10.90;1.35;;;;;;;;;;5007646;28;20132;-61
2021/12/19 11:50:25;;;;;;;15.80;1.50;;;;;;;;;;5009293;28;20366;-61
2021/12/19 11:52:52;;;;;;;17.02;1.55;;;;;;;;;;5008226;28;20060;-61
2021/12/19 11:55:20;;;;;;;13.40;1.38;;;;;;;;;;5007404;28;20045;-61
2021/12/19 11:58:04;;;;;;;14.63;1.48;;;;;;;;;;5008652;28;20049;-60
2021/12/19 12:00:32;;;;;;;15.30;1.40;;;;;;;;;;5005522;28;20058;-61
2021/12/19 12:03:13;;;;;;;13.77;1.33;;;;;;;;;;5008640;28;20049;-60
2021/12/19 12:05:39;;;;;;;13.65;1.20;;;;;;;;;;5008761;28;20164;-61
2021/12/19 12:08:09;;;;;;;10.65;1.13;;;;;;;;;;5008898;28;20128;-61
2021/12/19 12:10:51;;;;;;;13.90;1.55;;;;;;;;;;5007236;28;20054;-62
2021/12/19 12:13:22;;;;;;;13.77;1.33;;;;;;;;;;5007059;28;20046;-61
2021/12/19 12:15:51;;;;;;;12.98;1.20;;;;;;;;;;5007736;28;20100;-61
2021/12/19 12:18:34;;;;;;;20.67;2.17;;;;;;;;;;4979246;28;20058;-61
2021/12/19 12:21:30;;;;;;;17.55;1.33;;;;;;;;;;4987215;28;20042;-62
2021/12/19 12:24:11;;;;;;;22.10;1.75;;;;;;;;;;4988366;28;20049;-61
2021/12/19 12:26:43;;;;;;;23.02;1.42;;;;;;;;;;4989551;28;20622;-61
2021/12/19 12:29:10;;;;;;;18.73;1.63;;;;;;;;;;4987749;28;20038;-61
2021/12/19 12:31:36;;;;;;;21.23;1.80;;;;;;;;;;4987779;28;20042;-61
2021/12/19 12:34:03;;;;;;;17.67;2.03;;;;;;;;;;4987907;28;20122;-61
2021/12/19 12:36:29;;;;;;;25.05;2.10;;;;;;;;;;4988916;28;20519;-61
2021/12/19 12:38:56;;;;;;;19.08;2.03;;;;;;;;;;4987300;28;20050;-62
2021/12/19 12:44:03;;;;;;;23.48;2.63;;;;;;;;;;4971181;28;20121;-61
2021/12/19 12:46:30;;;;;;;24.10;2.60;;;;;;;;;;4987716;28;20493;-62
2021/12/19 12:48:57;;;;;;;18.50;2.00;;;;;;;;;;4987362;28;20125;-62
2021/12/19 12:51:44;;;;;;;17.98;1.83;;;;;;;;;;4989099;28;20069;-62
2021/12/19 12:54:12;;;;;;;15.57;1.70;;;;;;;;;;5001646;28;20054;-61
2021/12/19 12:56:45;;;;;;;22.10;2.17;;;;;;;;;;4987112;28;20077;-62
2021/12/19 12:59:11;;;;;;;;;;;;;;;;;;4988923;28;20043;-62
2021/12/19 13:01:40;;;;;;;21.67;2.55;;;;;;;;;;4986869;28;19973;-62
2021/12/19 13:04:12;;;;;;;25.90;2.05;;;;;;;;;;4989754;28;20566;-62
2021/12/19 13:06:45;;;;;;;20.58;2.08;;;;;;;;;;4987077;28;20461;-61
2021/12/19 13:09:28;;;;;;;19.77;2.17;;;;;;;;;;4987664;28;20312;-62
2021/12/19 13:12:00;;;;;;;20.65;2.30;;;;;;;;;;4986339;28;20100;-61
2021/12/19 13:14:28;;;;;;;21.27;2.65;;;;;;;;;;4986206;28;20104;-62
2021/12/19 13:16:55;;;;;;;20.02;2.25;;;;;;;;;;4987104;28;20035;-61
2021/12/19 13:19:41;;;;;;;20.80;2.70;;;;;;;;;;4988767;28;20049;-62
2021/12/19 13:22:09;;;;;;;24.05;2.50;;;;;;;;;;4988529;28;20034;-62
2021/12/19 13:24:35;;;;;;;23.40;2.42;;;;;;;;;;4986067;28;20046;-62
2021/12/19 13:27:03;;;;;;;21.13;1.98;;;;;;;;;;4987176;28;20046;-62
2021/12/19 13:29:30;;;;;;;22.45;2.42;;;;;;;;;;4986564;28;20117;-62
2021/12/19 13:32:15;;;;;;;15.10;2.22;;;;;;;;;;4984844;28;20492;-63
2021/12/19 13:34:41;;;;;;;14.15;1.80;;;;;;;;;;4967966;28;20153;-63
2021/12/19 13:37:07;;;;;;;15.07;1.40;;;;;;;;;;4985770;28;20274;-63
2021/12/19 13:39:33;;;;;;;13.10;1.67;;;;;;;;;;4986788;28;20464;-63
2021/12/19 13:42:07;;;;;;;12.30;1.20;;;;;;;;;;4988173;28;20477;-62
2021/12/19 13:44:33;;;;;;;16.60;1.55;;;;;;;;;;4987353;28;20472;-63
2021/12/19 13:47:06;;;;;;;15.18;1.10;;;;;;;;;;4986679;28;20042;-63
2021/12/19 13:49:32;;;;;;;15.63;1.27;;;;;;;;;;4993566;28;20042;-62
2021/12/19 13:52:00;;;;;;;15.48;1.30;;;;;;;;;;4985026;28;20053;-63
2021/12/19 13:54:29;;;;;;;13.65;1.60;;;;;;;;;;4986439;28;20042;-62
2021/12/19 13:56:55;;;;;;;20.35;1.65;;;;;;;;;;4967788;28;20050;-63
2021/12/19 13:59:24;;;;;;;21.70;1.35;;;;;;;;;;4985059;28;20469;-62
2021/12/19 14:01:50;;;;;;;15.52;1.70;;;;;;;;;;4986172;28;20054;-62
2021/12/19 14:04:16;;;;;;;20.30;1.98;;;;;;;;;;4986169;28;20161;-62
2021/12/19 14:06:45;;;;;;;19.35;1.40;;;;;;;;;;4989037;28;20126;-63
2021/12/19 14:09:15;;;;;;;14.43;1.08;;;;;;;;;;4983680;28;20042;-62
2021/12/19 14:11:42;;;;;;;12.45;1.33;;;;;;;;;;4989062;28;20736;-62
2021/12/19 14:14:30;;;;;;;15.35;1.45;;;;;;;;;;4989919;28;20452;-63
2021/12/19 14:17:04;;;;;;;13.18;0.90;;;;;;;;;;4988169;28;20404;-63
2021/12/19 14:19:31;;;;;;;11.93;0.90;;;;;;;;;;5004688;28;21319;-62
2021/12/19 14:22:10;;;;;;;16.83;1.30;;;;;;;;;;4988492;28;20077;-62
2021/12/19 14:24:41;;;;;;;16.20;1.10;;;;;;;;;;4971905;28;20096;-63
2021/12/19 14:27:16;;;;;;;14.60;1.10;;;;;;;;;;4989934;28;20038;-62
2021/12/19 14:29:46;;;;;;;14.43;1.33;;;;;;;;;;4996171;28;20558;-63
2021/12/19 14:32:17;;;;;;;24.17;1.65;;;;;;;;;;4972463;28;20065;-62
2021/12/19 14:35:06;;;;;;;12.90;0.93;;;;;;;;;;4996151;28;20042;-63
2021/12/19 14:37:44;;;;;;;13.05;1.23;;;;;;;;;;4981783;28;20046;-63
2021/12/19 14:40:32;;;;;;;13.07;0.95;;;;;;;;;;4988960;28;20434;-62
2021/12/19 14:43:05;;;;;;;15.57;1.73;;;;;;;;;;4986429;28;20041;-62
2021/12/19 14:45:35;;;;;;;22.23;2.00;;;;;;;;;;4988419;28;20045;-62
2021/12/19 14:48:04;;;;;;;17.92;1.45;;;;;;;;;;4988523;28;20445;-63
2021/12/19 14:50:34;;;;;;;19.13;3.75;;;;;;;;;;4999066;28;20050;-62
2021/12/19 14:53:00;;;;;;;19.95;3.65;;;;;;;;;;4988416;28;20101;-62
2021/12/19 14:55:28;;;;;;;21.00;2.22;;;;;;;;;;4990393;28;20038;-62
2021/12/19 14:57:54;;;;;;;16.63;1.20;;;;;;;;;;4987850;28;20042;-63
2021/12/19 15:00:20;;;;;;;14.00;0.90;;;;;;;;;;4986926;28;20149;-62
2021/12/19 15:02:46;;;;;;;12.20;1.00;;;;;;;;;;4988175;28;20046;-63
2021/12/19 15:05:12;;;;;;;11.60;1.02;;;;;;;;;;4987388;28;20412;-63
2021/12/19 15:07:43;;;;;;;11.65;1.23;;;;;;;;;;5002332;28;20030;-63
2021/12/19 15:10:10;;;;;;;15.98;1.48;;;;;;;;;;4988843;28;20042;-63
2021/12/19 15:12:36;;;;;;;11.00;0.98;;;;;;;;;;4987214;28;20141;-63
2021/12/19 15:15:02;;;;;;;14.50;1.20;;;;;;;;;;4990076;28;20049;-63
2021/12/19 15:17:29;;;;;;;16.35;0.90;;;;;;;;;;4987060;28;20150;-63
2021/12/19 15:19:55;;;;;;;17.33;1.33;;;;;;;;;;4990497;28;20049;-63
2021/12/19 15:22:21;;;;;;;16.38;1.65;;;;;;;;;;4990914;28;20037;-63
2021/12/19 15:24:47;;;;;;;14.27;1.65;;;;;;;;;;4989912;28;20492;-62
2021/12/19 15:27:13;;;;;;;14.60;1.05;;;;;;;;;;4990755;28;20049;-63
2021/12/19 15:29:39;;;;;;;18.95;2.08;;;;;;;;;;4992554;28;20206;-62
2021/12/19 15:32:05;;;;;;;20.98;1.63;;;;;;;;;;4990519;28;20058;-63
2021/12/19 15:34:31;;;;;;;16.27;1.83;;;;;;;;;;4990816;28;20057;-63
2021/12/19 15:36:57;;;;;;;16.92;1.10;;;;;;;;;;5007025;28;20052;-62
2021/12/19 15:39:23;;;;;;;20.20;1.73;;;;;;;;;;4990236;28;20070;-62
2021/12/19 15:41:51;;;;;;;20.45;2.55;;;;;;;;;;4991699;28;20054;-63
2021/12/19 15:44:17;;;;;;;13.18;1.65;;;;;;;;;;4974760;28;20511;-62
2021/12/19 15:46:43;;;;;;;21.05;1.67;;;;;;;;;;4974467;28;20073;-62
2021/12/19 15:49:09;;;;;;;19.15;1.65;;;;;;;;;;4990043;28;20054;-63
2021/12/19 15:51:35;;;;;;;17.83;1.83;;;;;;;;;;4990332;28;20042;-63
2021/12/19 15:54:01;;;;;;;17.13;1.50;;;;;;;;;;4990299;28;20185;-62
2021/12/19 15:56:27;;;;;;;17.25;1.50;;;;;;;;;;4991416;28;20046;-62
2021/12/19 15:58:54;;;;;;;19.08;1.40;;;;;;;;;;4973964;28;20383;-63